Time;durP1;ratioP1;P1;durP2;ratioP2;P2;SDS_P1;SDS_P2;PMS_P1;PMS_P2;Temp;Humidity;BMP_temperature;BMP_pressure;BME280_temperature;BME280_humidity;BME280_pressure;Samples;Min_cycle;Max_cycle;Signal;HPM_P1;HPM_P2
2023/09/14 00:00:45;;;;;;;7.78;4.05;;;13.70;99.90;;;;;;5059694;28;20029;-65
2023/09/14 00:03:11;;;;;;;8.18;3.97;;;13.70;99.90;;;;;;5057524;28;20025;-65
2023/09/14 00:05:40;;;;;;;9.77;3.95;;;13.70;99.90;;;;;;5061178;28;20526;-63
2023/09/14 00:08:06;;;;;;;6.70;3.88;;;13.70;99.90;;;;;;5055415;28;20025;-64
2023/09/14 00:10:32;;;;;;;9.27;3.78;;;13.70;99.90;;;;;;5056442;28;20031;-65
2023/09/14 00:12:58;;;;;;;10.23;4.78;;;13.60;99.90;;;;;;5053132;28;20024;-65
2023/09/14 00:15:24;;;;;;;7.05;4.28;;;13.60;99.90;;;;;;5054349;28;20078;-65
2023/09/14 00:17:49;;;;;;;8.07;3.78;;;13.50;99.90;;;;;;5061688;28;20034;-65
2023/09/14 00:20:20;;;;;;;7.72;4.50;;;13.50;99.90;;;;;;5056814;28;20430;-66
2023/09/14 00:22:47;;;;;;;9.73;4.45;;;13.50;99.90;;;;;;5054610;28;20473;-64
2023/09/14 00:25:13;;;;;;;5.63;3.75;;;13.50;99.90;;;;;;5054222;28;20033;-64
2023/09/14 00:27:39;;;;;;;9.32;4.50;;;13.40;99.90;;;;;;5054408;28;20394;-64
2023/09/14 00:30:05;;;;;;;6.75;3.78;;;13.40;99.90;;;;;;5061119;28;20039;-65
2023/09/14 00:32:31;;;;;;;8.90;4.20;;;13.30;99.90;;;;;;5053200;28;20115;-66
2023/09/14 00:34:57;;;;;;;8.50;4.38;;;13.30;99.90;;;;;;5056039;28;20107;-66
2023/09/14 00:37:23;;;;;;;11.75;3.90;;;13.20;99.90;;;;;;5056280;28;20151;-65
2023/09/14 00:39:48;;;;;;;7.72;3.90;;;13.20;99.90;;;;;;5037106;28;20017;-65
2023/09/14 00:42:14;;;;;;;8.85;4.35;;;13.20;99.90;;;;;;5057264;28;20621;-65
2023/09/14 00:44:40;;;;;;;6.53;3.88;;;13.20;99.90;;;;;;5052521;28;20039;-64
2023/09/14 00:47:05;;;;;;;8.10;4.10;;;13.10;99.90;;;;;;5055662;28;20048;-65
2023/09/14 00:49:31;;;;;;;9.77;4.38;;;13.10;99.90;;;;;;5056949;28;20060;-65
2023/09/14 00:51:57;;;;;;;10.60;4.10;;;13.00;99.90;;;;;;5052604;28;20730;-66
2023/09/14 00:54:23;;;;;;;8.73;3.60;;;12.90;99.90;;;;;;5055855;28;20040;-65
2023/09/14 00:56:48;;;;;;;7.18;3.75;;;12.90;99.90;;;;;;5056768;28;20021;-64
2023/09/14 00:59:14;;;;;;;10.15;3.80;;;12.80;99.90;;;;;;5059958;28;20095;-63
2023/09/14 01:01:40;;;;;;;10.40;3.88;;;12.80;99.90;;;;;;5035508;28;20514;-65
2023/09/14 01:04:05;;;;;;;8.15;4.15;;;12.70;99.90;;;;;;5054069;28;20382;-64
2023/09/14 01:06:32;;;;;;;12.70;4.75;;;12.70;99.90;;;;;;5056780;28;20044;-65
2023/09/14 01:08:58;;;;;;;8.05;3.92;;;12.70;99.90;;;;;;5053555;28;20028;-65
2023/09/14 01:11:24;;;;;;;12.25;4.70;;;12.60;99.90;;;;;;5054284;28;20028;-65
2023/09/14 01:14:04;;;;;;;7.20;3.83;;;12.60;99.90;;;;;;5053665;28;20235;-65
2023/09/14 01:16:50;;;;;;;13.32;4.55;;;12.50;99.90;;;;;;5050988;28;20066;-65
2023/09/14 01:19:19;;;;;;;6.35;4.20;;;12.50;99.90;;;;;;5064183;28;20025;-65
2023/09/14 01:22:26;;;;;;;12.77;3.88;;;12.40;99.90;;;;;;5056588;28;20021;-65
2023/09/14 01:25:01;;;;;;;11.88;3.83;;;12.30;99.90;;;;;;5059741;28;20044;-65
2023/09/14 01:27:26;;;;;;;10.07;4.28;;;12.20;99.90;;;;;;5055816;28;20494;-65
2023/09/14 01:29:56;;;;;;;16.77;4.22;;;12.20;99.90;;;;;;5061214;28;20038;-65
2023/09/14 01:32:21;;;;;;;6.40;3.95;;;12.10;99.90;;;;;;5051201;28;20074;-66
2023/09/14 01:34:47;;;;;;;7.53;4.22;;;12.10;99.90;;;;;;5052753;28;20036;-64
2023/09/14 01:37:15;;;;;;;8.10;3.78;;;12.10;99.90;;;;;;5054130;28;20048;-65
2023/09/14 01:39:41;;;;;;;8.70;4.03;;;12.20;99.90;;;;;;5053098;28;20086;-65
2023/09/14 01:42:08;;;;;;;7.47;3.80;;;12.20;99.90;;;;;;5052459;28;20043;-65
2023/09/14 01:44:34;;;;;;;8.38;3.75;;;12.20;99.90;;;;;;5062199;28;20027;-64
2023/09/14 01:46:59;;;;;;;12.48;3.42;;;12.20;99.90;;;;;;5056962;28;20745;-64
2023/09/14 01:49:25;;;;;;;6.35;2.92;;;12.20;99.90;;;;;;5057145;28;20025;-65
2023/09/14 01:51:51;;;;;;;7.75;3.78;;;12.10;99.90;;;;;;5058280;28;20127;-65
2023/09/14 01:54:17;;;;;;;7.65;4.28;;;12.10;99.90;;;;;;5054797;28;20367;-66
2023/09/14 01:56:42;;;;;;;22.65;3.65;;;12.10;99.90;;;;;;5057259;28;20028;-65
2023/09/14 01:59:08;;;;;;;7.85;2.83;;;12.00;99.90;;;;;;5046592;28;20036;-65
2023/09/14 02:01:34;;;;;;;23.90;2.45;;;12.00;99.90;;;;;;5056660;28;20025;-65
2023/09/14 02:03:59;;;;;;;19.45;2.80;;;11.90;99.90;;;;;;5053795;28;20037;-65
2023/09/14 02:06:25;;;;;;;21.30;3.13;;;11.80;99.90;;;;;;5057801;28;20504;-65
2023/09/14 02:08:50;;;;;;;12.75;2.05;;;11.80;99.90;;;;;;5058422;28;20385;-65
2023/09/14 02:11:16;;;;;;;15.52;2.47;;;11.70;99.90;;;;;;5043516;28;20105;-62
2023/09/14 02:13:42;;;;;;;7.50;2.20;;;11.70;99.90;;;;;;5058221;28;20044;-65
2023/09/14 02:16:08;;;;;;;7.30;2.40;;;11.70;99.90;;;;;;5051068;28;20040;-65
2023/09/14 02:18:33;;;;;;;13.82;2.53;;;11.60;99.90;;;;;;5058175;28;20444;-65
2023/09/14 02:20:59;;;;;;;10.48;2.13;;;11.60;99.90;;;;;;5054054;28;20029;-66
2023/09/14 02:23:24;;;;;;;22.70;2.95;;;11.50;99.90;;;;;;5056842;28;20053;-64
2023/09/14 02:25:50;;;;;;;10.15;2.08;;;11.50;99.90;;;;;;5061032;28;20104;-64
2023/09/14 02:28:19;;;;;;;13.73;2.08;;;11.50;99.90;;;;;;5053019;28;20021;-64
2023/09/14 02:30:45;;;;;;;8.57;2.40;;;11.40;99.90;;;;;;5039229;28;20498;-65
2023/09/14 02:33:10;;;;;;;26.45;2.30;;;11.40;99.90;;;;;;5053486;28;20033;-64
2023/09/14 02:35:38;;;;;;;7.07;2.50;;;11.40;99.90;;;;;;5056904;28;20020;-64
2023/09/14 02:38:04;;;;;;;11.68;2.08;;;11.40;99.90;;;;;;5053491;28;20461;-64
2023/09/14 02:40:30;;;;;;;6.93;2.50;;;11.40;99.90;;;;;;5054844;28;20112;-65
2023/09/14 02:42:56;;;;;;;12.68;2.53;;;11.30;99.90;;;;;;5047088;28;20489;-64
2023/09/14 02:45:21;;;;;;;5.57;2.20;;;11.40;99.90;;;;;;5053994;28;20154;-64
2023/09/14 02:47:47;;;;;;;4.80;2.80;;;11.30;99.90;;;;;;5058640;28;20024;-65
2023/09/14 02:50:13;;;;;;;7.43;2.85;;;11.30;99.90;;;;;;5050274;28;20044;-65
2023/09/14 02:52:38;;;;;;;6.82;2.97;;;11.30;99.90;;;;;;5056402;28;20083;-65
2023/09/14 02:55:04;;;;;;;20.00;4.05;;;11.40;99.90;;;;;;5057580;28;20522;-64
2023/09/14 02:57:30;;;;;;;12.75;3.88;;;11.30;99.90;;;;;;5056149;28;20032;-65
2023/09/14 02:59:55;;;;;;;6.95;3.92;;;11.40;99.90;;;;;;5052120;28;20036;-64
2023/09/14 03:02:22;;;;;;;20.85;4.20;;;11.40;99.90;;;;;;5057401;28;20076;-66
2023/09/14 03:04:48;;;;;;;19.92;3.88;;;11.40;99.90;;;;;;5058970;28;20033;-64
2023/09/14 03:07:14;;;;;;;6.57;3.65;;;11.40;99.90;;;;;;5050267;28;20078;-65
2023/09/14 03:09:40;;;;;;;21.85;4.70;;;11.40;99.90;;;;;;5054869;28;20036;-65
2023/09/14 03:12:06;;;;;;;14.43;4.18;;;11.40;99.90;;;;;;5055521;28;20036;-65
2023/09/14 03:14:32;;;;;;;17.15;3.65;;;11.40;99.90;;;;;;5053392;28;20064;-64
2023/09/14 03:16:58;;;;;;;36.80;3.55;;;11.30;99.90;;;;;;5066352;28;20032;-65
2023/09/14 03:19:24;;;;;;;25.58;3.20;;;11.30;99.90;;;;;;5062981;28;20025;-65
2023/09/14 03:21:49;;;;;;;33.40;4.18;;;11.30;99.90;;;;;;5053077;28;20059;-65
2023/09/14 03:24:15;;;;;;;20.70;3.97;;;11.30;99.90;;;;;;5057483;28;20785;-65
2023/09/14 03:26:40;;;;;;;13.68;4.00;;;11.30;99.90;;;;;;5055267;28;20025;-65
2023/09/14 03:29:06;;;;;;;36.92;4.68;;;11.30;99.90;;;;;;5056482;28;20486;-65
2023/09/14 03:31:32;;;;;;;16.02;4.53;;;11.40;99.90;;;;;;5052244;28;20390;-65
2023/09/14 03:33:58;;;;;;;32.17;4.25;;;11.40;99.90;;;;;;5045790;28;20028;-65
2023/09/14 03:36:23;;;;;;;16.65;3.78;;;11.40;99.90;;;;;;5058920;28;20032;-65
2023/09/14 03:38:49;;;;;;;28.15;4.05;;;11.40;99.90;;;;;;5056349;28;20501;-65
2023/09/14 03:41:15;;;;;;;12.80;4.18;;;11.40;99.90;;;;;;5060217;28;20150;-64
2023/09/14 03:43:41;;;;;;;20.33;5.35;;;11.40;99.90;;;;;;5060296;28;20094;-65
2023/09/14 03:46:07;;;;;;;14.95;5.07;;;11.50;99.90;;;;;;5059702;28;20393;-65
2023/09/14 03:48:33;;;;;;;14.32;4.45;;;11.50;99.90;;;;;;5055330;28;20498;-65
2023/09/14 03:51:00;;;;;;;17.33;4.57;;;11.50;99.90;;;;;;5061524;28;20035;-65
2023/09/14 03:53:27;;;;;;;10.43;5.10;;;11.50;99.90;;;;;;5057238;28;20116;-65
2023/09/14 03:55:53;;;;;;;8.10;4.97;;;11.50;99.90;;;;;;5065203;28;20499;-65
2023/09/14 03:58:19;;;;;;;10.98;4.50;;;11.50;99.90;;;;;;5056031;28;20082;-64
2023/09/14 04:00:45;;;;;;;8.32;4.82;;;11.50;99.90;;;;;;5060103;28;20037;-65
2023/09/14 04:03:11;;;;;;;7.55;4.43;;;11.50;99.90;;;;;;5058779;28;20118;-65
2023/09/14 04:05:36;;;;;;;8.05;5.18;;;11.50;99.90;;;;;;5052370;28;20082;-65
2023/09/14 04:08:02;;;;;;;7.63;4.55;;;11.50;99.90;;;;;;5056918;28;20452;-65
2023/09/14 04:10:28;;;;;;;7.45;4.72;;;11.60;99.90;;;;;;5045990;28;20025;-64
2023/09/14 04:13:17;;;;;;;8.13;4.95;;;11.60;99.90;;;;;;5060683;28;20516;-65
2023/09/14 04:15:42;;;;;;;7.68;4.43;;;11.60;99.90;;;;;;5061018;28;20033;-65
2023/09/14 04:18:08;;;;;;;7.35;4.60;;;11.60;99.90;;;;;;5050763;28;20453;-64
2023/09/14 04:20:33;;;;;;;12.45;4.60;;;11.60;99.90;;;;;;5051333;28;20029;-65
2023/09/14 04:22:59;;;;;;;6.43;4.53;;;11.60;99.90;;;;;;5053813;28;20545;-65
2023/09/14 04:25:24;;;;;;;11.15;4.15;;;11.60;99.90;;;;;;5058713;28;20029;-65
2023/09/14 04:27:50;;;;;;;25.33;3.88;;;11.60;99.90;;;;;;5055737;28;20594;-64
2023/09/14 04:30:15;;;;;;;23.55;4.63;;;11.50;99.90;;;;;;5058967;28;20394;-65
2023/09/14 04:32:41;;;;;;;13.38;4.50;;;11.50;99.90;;;;;;5059324;28;20029;-65
2023/09/14 04:35:07;;;;;;;15.32;4.72;;;11.50;99.90;;;;;;5052302;28;20056;-64
2023/09/14 04:37:33;;;;;;;10.82;4.25;;;11.50;99.90;;;;;;5060437;28;20020;-65
2023/09/14 04:39:59;;;;;;;10.43;4.45;;;11.40;99.90;;;;;;5055764;28;20098;-65
2023/09/14 04:42:24;;;;;;;7.65;4.70;;;11.40;99.90;;;;;;5060554;28;20667;-64
2023/09/14 04:44:51;;;;;;;12.13;4.22;;;11.40;99.90;;;;;;5060888;28;20393;-65
2023/09/14 04:47:17;;;;;;;6.55;3.97;;;11.40;99.90;;;;;;5059289;28;20505;-64
2023/09/14 04:49:43;;;;;;;9.05;4.47;;;11.40;99.90;;;;;;5058960;28;20029;-65
2023/09/14 04:52:08;;;;;;;6.03;3.85;;;11.40;99.90;;;;;;5055590;28;20051;-64
2023/09/14 04:54:34;;;;;;;5.88;4.07;;;11.40;99.90;;;;;;5058624;28;20032;-64
2023/09/14 04:56:59;;;;;;;8.70;4.25;;;11.40;99.90;;;;;;5055501;28;20040;-65
2023/09/14 04:59:25;;;;;;;4.70;3.60;;;11.30;99.90;;;;;;5060352;28;20382;-65
2023/09/14 05:01:50;;;;;;;6.60;4.20;;;11.30;99.90;;;;;;5050419;28;20121;-64
2023/09/14 05:04:16;;;;;;;8.02;3.80;;;11.30;99.90;;;;;;5056862;28;20021;-64
2023/09/14 05:06:43;;;;;;;28.65;4.10;;;11.30;99.90;;;;;;5057922;28;20024;-65
2023/09/14 05:09:09;;;;;;;26.20;4.45;;;11.30;99.90;;;;;;5056050;28;20053;-64
2023/09/14 05:11:34;;;;;;;26.92;4.25;;;11.30;99.90;;;;;;5047922;28;20045;-65
2023/09/14 05:14:00;;;;;;;37.70;3.97;;;11.30;99.90;;;;;;5064151;28;20036;-64
2023/09/14 05:16:25;;;;;;;15.40;3.55;;;11.30;99.90;;;;;;5045320;28;20021;-65
2023/09/14 05:18:51;;;;;;;29.05;3.85;;;11.40;99.90;;;;;;5055416;28;20025;-65
2023/09/14 05:21:17;;;;;;;28.30;3.50;;;11.40;99.90;;;;;;5060318;28;20098;-61
2023/09/14 05:23:43;;;;;;;12.32;4.15;;;11.30;99.90;;;;;;5055976;28;20025;-65
2023/09/14 05:26:09;;;;;;;10.88;4.22;;;11.30;99.90;;;;;;5055135;28;20040;-65
2023/09/14 05:28:34;;;;;;;8.48;4.40;;;11.30;99.90;;;;;;5055897;28;20111;-64
2023/09/14 05:31:00;;;;;;;6.40;4.13;;;11.30;99.90;;;;;;5051105;28;20383;-64
2023/09/14 05:33:26;;;;;;;6.72;4.63;;;11.30;99.90;;;;;;5054350;28;20044;-65
2023/09/14 05:35:51;;;;;;;14.77;5.03;;;11.40;99.90;;;;;;5032045;28;20067;-64
2023/09/14 05:38:17;;;;;;;9.15;5.05;;;11.40;99.90;;;;;;5058376;28;20453;-65
2023/09/14 05:40:43;;;;;;;8.27;5.50;;;11.50;99.90;;;;;;5053000;28;20025;-64
2023/09/14 05:43:08;;;;;;;10.10;5.28;;;11.60;99.90;;;;;;5055520;28;20081;-65
2023/09/14 05:45:34;;;;;;;8.93;5.10;;;11.70;99.90;;;;;;5043956;28;20139;-63
2023/09/14 05:48:04;;;;;;;8.60;4.53;;;11.70;99.90;;;;;;5052874;28;20059;-64
2023/09/14 05:50:30;;;;;;;6.75;4.38;;;11.80;99.90;;;;;;5060812;28;20085;-64
2023/09/14 05:52:56;;;;;;;6.07;4.07;;;11.90;99.90;;;;;;5053663;28;20025;-64
2023/09/14 05:55:21;;;;;;;5.40;3.70;;;12.00;99.90;;;;;;5055494;28;20564;-65
2023/09/14 05:57:47;;;;;;;7.88;4.20;;;12.10;99.90;;;;;;5053353;28;20169;-65
2023/09/14 06:00:13;;;;;;;13.73;4.28;;;12.20;99.90;;;;;;5053356;28;20132;-65
2023/09/14 06:02:42;;;;;;;7.45;4.20;;;12.10;99.90;;;;;;5054901;28;20096;-65
2023/09/14 06:05:08;;;;;;;6.35;3.47;;;12.20;99.90;;;;;;5056197;28;20033;-65
2023/09/14 06:07:34;;;;;;;8.43;4.53;;;12.30;99.90;;;;;;5058594;28;20025;-64
2023/09/14 06:10:00;;;;;;;6.28;4.00;;;12.30;99.90;;;;;;5055416;28;20024;-65
2023/09/14 06:12:29;;;;;;;8.07;3.90;;;12.30;99.90;;;;;;5052300;28;20028;-64
2023/09/14 06:14:55;;;;;;;4.95;3.53;;;12.30;99.90;;;;;;5057325;28;20048;-65
2023/09/14 06:17:21;;;;;;;8.90;4.40;;;12.40;99.90;;;;;;5049667;28;20478;-65
2023/09/14 06:19:46;;;;;;;8.65;3.83;;;12.50;99.90;;;;;;5054759;28;20397;-65
2023/09/14 06:22:12;;;;;;;7.30;4.38;;;12.50;99.90;;;;;;5051481;28;20036;-65
2023/09/14 06:24:37;;;;;;;6.50;4.35;;;12.60;99.90;;;;;;5053724;28;20033;-64
2023/09/14 06:27:03;;;;;;;5.05;4.05;;;12.70;99.90;;;;;;5052488;28;20507;-65
2023/09/14 06:29:29;;;;;;;6.35;3.72;;;12.80;99.90;;;;;;5056159;28;20107;-64
2023/09/14 06:31:54;;;;;;;9.80;4.13;;;12.80;99.90;;;;;;5033946;28;20033;-65
2023/09/14 06:34:20;;;;;;;15.60;4.20;;;13.00;99.90;;;;;;5052873;28;20041;-64
2023/09/14 06:36:46;;;;;;;7.43;4.00;;;13.20;99.90;;;;;;5054109;28;20024;-64
2023/09/14 06:39:13;;;;;;;6.18;3.42;;;13.40;99.90;;;;;;5050304;28;20030;-64
2023/09/14 06:41:39;;;;;;;4.60;3.45;;;13.60;99.90;;;;;;5050945;28;20118;-64
2023/09/14 06:44:05;;;;;;;9.85;3.20;;;14.10;99.90;;;;;;5053910;28;20024;-64
2023/09/14 06:46:30;;;;;;;4.85;2.95;;;14.60;99.90;;;;;;5052161;28;20151;-64
2023/09/14 06:48:56;;;;;;;5.07;3.13;;;15.00;99.90;;;;;;5051479;28;20047;-65
2023/09/14 06:51:22;;;;;;;6.10;2.65;;;15.50;99.90;;;;;;5052274;28;20043;-63
2023/09/14 06:53:47;;;;;;;4.88;3.22;;;16.00;99.90;;;;;;5051760;28;20040;-65
2023/09/14 06:56:13;;;;;;;4.63;2.08;;;15.90;99.90;;;;;;5051487;28;20437;-65
2023/09/14 06:58:39;;;;;;;3.83;2.85;;;15.70;99.90;;;;;;5052291;28;20036;-64
2023/09/14 07:01:05;;;;;;;3.72;2.80;;;15.90;99.90;;;;;;5053246;28;20046;-64
2023/09/14 07:03:31;;;;;;;6.32;3.00;;;16.10;99.90;;;;;;5051944;28;20111;-65
2023/09/14 07:05:57;;;;;;;5.03;2.80;;;16.40;99.90;;;;;;5051545;28;20044;-65
2023/09/14 07:08:23;;;;;;;6.88;2.42;;;16.70;99.90;;;;;;5051590;28;20478;-65
2023/09/14 07:10:49;;;;;;;4.53;2.10;;;18.00;99.90;;;;;;5052481;28;20068;-65
2023/09/14 07:13:14;;;;;;;7.18;3.03;;;18.90;99.90;;;;;;5053439;28;20036;-66
2023/09/14 07:15:40;;;;;;;5.85;2.33;;;19.50;99.90;;;;;;5052347;28;20033;-65
2023/09/14 07:18:06;;;;;;;5.05;2.15;;;18.90;99.90;;;;;;5053988;28;20032;-65
2023/09/14 07:20:31;;;;;;;3.90;2.92;;;18.70;99.90;;;;;;5050238;28;20405;-65
2023/09/14 07:22:57;;;;;;;2.80;2.08;;;18.60;99.90;;;;;;5055126;28;20037;-65
2023/09/14 07:25:23;;;;;;;6.45;2.20;;;18.70;99.90;;;;;;5035242;28;20024;-64
2023/09/14 07:27:48;;;;;;;3.38;1.90;;;19.40;99.90;;;;;;5052773;28;20029;-65
2023/09/14 07:30:14;;;;;;;8.05;2.13;;;20.00;99.90;;;;;;5053308;28;20541;-65
2023/09/14 07:32:40;;;;;;;6.35;2.25;;;20.00;99.90;;;;;;5033403;28;20078;-65
2023/09/14 07:35:09;;;;;;;3.65;2.28;;;19.60;99.90;;;;;;5049556;28;20037;-64
2023/09/14 07:37:36;;;;;;;5.40;2.60;;;19.10;99.90;;;;;;5030619;28;20017;-65
2023/09/14 07:40:03;;;;;;;3.67;1.70;;;18.80;99.90;;;;;;5054782;28;20147;-65
2023/09/14 07:42:28;;;;;;;3.13;1.95;;;18.40;99.90;;;;;;5035529;28;20053;-65
2023/09/14 07:44:54;;;;;;;4.22;1.88;;;18.10;99.90;;;;;;5049763;28;20049;-64
2023/09/14 07:47:24;;;;;;;6.60;2.08;;;18.20;99.90;;;;;;5051063;28;20141;-64
2023/09/14 07:49:50;;;;;;;4.20;2.08;;;18.90;99.90;;;;;;5050457;28;20035;-65
2023/09/14 07:52:15;;;;;;;5.28;2.60;;;18.50;99.90;;;;;;5051544;28;20139;-65
2023/09/14 07:54:41;;;;;;;6.53;2.58;;;18.30;99.90;;;;;;5052995;28;20036;-65
2023/09/14 07:57:06;;;;;;;6.03;2.33;;;18.20;99.90;;;;;;5053550;28;20024;-65
2023/09/14 07:59:32;;;;;;;2.80;2.42;;;17.80;99.90;;;;;;5055357;28;20029;-65
2023/09/14 08:01:57;;;;;;;4.57;2.10;;;17.70;99.90;;;;;;5053724;28;20025;-65
2023/09/14 08:04:23;;;;;;;3.30;1.88;;;17.70;99.90;;;;;;5053102;28;20489;-65
2023/09/14 08:06:49;;;;;;;6.32;2.72;;;17.70;99.90;;;;;;5052923;28;20395;-65
2023/09/14 08:09:14;;;;;;;5.15;2.17;;;17.70;99.90;;;;;;5053156;28;20025;-65
2023/09/14 08:11:41;;;;;;;3.20;2.08;;;18.10;99.90;;;;;;5056911;28;20029;-65
2023/09/14 08:14:06;;;;;;;4.28;2.03;;;18.00;99.90;;;;;;5056047;28;20057;-65
2023/09/14 08:16:32;;;;;;;5.95;2.25;;;18.20;99.90;;;;;;5054354;28;20109;-64
2023/09/14 08:18:58;;;;;;;3.22;2.03;;;18.50;99.90;;;;;;5056820;28;20122;-64
2023/09/14 08:21:24;;;;;;;4.35;1.50;;;18.70;99.90;;;;;;5052409;28;20561;-65
2023/09/14 08:23:50;;;;;;;3.03;2.03;;;19.10;99.90;;;;;;5056824;28;20112;-65
2023/09/14 08:26:15;;;;;;;3.50;1.92;;;19.90;99.90;;;;;;5057835;28;20386;-65
2023/09/14 08:28:41;;;;;;;3.13;1.65;;;20.30;99.90;;;;;;5057971;28;20029;-65
2023/09/14 08:31:07;;;;;;;3.42;2.10;;;20.20;99.90;;;;;;5055815;28;20043;-65
2023/09/14 08:33:32;;;;;;;4.47;1.80;;;20.40;99.90;;;;;;5051402;28;20143;-66
2023/09/14 08:35:58;;;;;;;4.10;1.55;;;20.20;99.90;;;;;;5052215;28;20108;-65
2023/09/14 08:38:25;;;;;;;5.28;1.70;;;20.60;99.90;;;;;;5058138;28;20131;-64
2023/09/14 08:40:54;;;;;;;5.40;1.58;;;21.10;99.90;;;;;;5054229;28;20024;-65
2023/09/14 08:43:20;;;;;;;3.67;2.00;;;22.30;99.90;;;;;;5055488;28;20035;-65
2023/09/14 08:45:47;;;;;;;4.30;1.80;;;21.80;99.90;;;;;;5036663;28;20086;-65
2023/09/14 08:48:15;;;;;;;3.95;1.70;;;21.10;99.90;;;;;;5054303;28;20501;-65
2023/09/14 08:50:43;;;;;;;2.13;1.67;;;20.90;99.90;;;;;;5054519;28;20024;-65
2023/09/14 08:53:12;;;;;;;3.00;1.85;;;20.30;99.90;;;;;;5054616;28;20142;-65
2023/09/14 08:55:38;;;;;;;5.75;2.15;;;20.40;99.90;;;;;;5054802;28;20040;-66
2023/09/14 08:58:04;;;;;;;4.15;1.80;;;20.30;99.90;;;;;;5053326;28;20549;-65
2023/09/14 09:00:31;;;;;;;2.88;2.10;;;20.10;99.90;;;;;;5053433;28;20090;-66
2023/09/14 09:02:57;;;;;;;3.45;1.80;;;20.20;99.90;;;;;;5052492;28;20450;-65
2023/09/14 09:05:25;;;;;;;2.35;1.90;;;20.40;99.90;;;;;;5045918;28;20048;-64
2023/09/14 09:07:52;;;;;;;5.15;2.85;;;20.80;99.90;;;;;;5054153;28;20036;-66
2023/09/14 09:10:23;;;;;;;4.15;2.15;;;21.20;99.90;;;;;;5051023;28;20608;-64
2023/09/14 09:12:54;;;;;;;2.88;2.20;;;22.00;99.90;;;;;;5052685;28;20127;-66
2023/09/14 09:15:22;;;;;;;3.83;1.50;;;22.30;99.90;;;;;;5052158;28;20099;-66
2023/09/14 09:17:52;;;;;;;3.88;2.03;;;22.10;99.90;;;;;;5036703;28;20033;-65
2023/09/14 09:20:25;;;;;;;10.63;2.35;;;22.40;99.90;;;;;;5052019;28;20032;-66
2023/09/14 09:22:59;;;;;;;4.50;2.00;;;21.90;99.90;;;;;;5050937;28;20036;-66
2023/09/14 09:25:25;;;;;;;3.22;2.55;;;21.70;99.90;;;;;;5035634;28;20286;-65
2023/09/14 09:27:58;;;;;;;3.63;2.20;;;21.30;99.90;;;;;;5051168;28;20036;-66
2023/09/14 09:30:35;;;;;;;3.35;2.22;;;21.10;99.90;;;;;;5051018;28;20033;-66
2023/09/14 09:33:01;;;;;;;4.53;2.22;;;21.10;99.90;;;;;;5049993;28;20040;-65
2023/09/14 09:35:28;;;;;;;3.47;2.58;;;21.10;99.90;;;;;;5052176;28;20086;-66
2023/09/14 09:37:55;;;;;;;3.78;2.65;;;21.70;99.90;;;;;;5055159;28;20039;-65
2023/09/14 09:40:23;;;;;;;4.10;2.67;;;21.60;99.90;;;;;;5052404;28;20029;-65
2023/09/14 09:42:49;;;;;;;7.78;2.80;;;21.50;99.90;;;;;;5050979;28;20045;-65
2023/09/14 09:45:18;;;;;;;6.03;2.65;;;21.80;99.90;;;;;;5033426;28;20025;-66
2023/09/14 09:47:44;;;;;;;3.15;2.50;;;22.70;99.90;;;;;;5053389;28;20029;-65
2023/09/14 09:50:12;;;;;;;3.10;2.03;;;22.50;99.90;;;;;;5048843;28;20135;-66
2023/09/14 09:52:39;;;;;;;4.30;3.03;;;22.50;99.90;;;;;;5050828;28;20060;-65
2023/09/14 09:55:07;;;;;;;3.67;2.67;;;22.30;99.90;;;;;;5049381;28;20498;-66
2023/09/14 09:57:36;;;;;;;3.95;2.63;;;22.90;99.90;;;;;;5052911;28;20033;-65
2023/09/14 10:00:12;;;;;;;6.22;2.60;;;22.80;99.90;;;;;;5053459;28;20071;-65
2023/09/14 10:02:39;;;;;;;4.07;2.75;;;22.70;99.90;;;;;;5054276;28;20097;-65
2023/09/14 10:05:04;;;;;;;3.72;2.65;;;23.00;98.60;;;;;;5055121;28;20029;-65
2023/09/14 10:07:40;;;;;;;4.40;2.55;;;22.70;98.60;;;;;;5052113;28;20421;-66
2023/09/14 10:10:12;;;;;;;4.25;2.22;;;22.60;99.30;;;;;;5049186;28;20044;-66
2023/09/14 10:12:39;;;;;;;4.10;2.60;;;23.20;98.60;;;;;;5054650;28;20030;-65
2023/09/14 10:15:06;;;;;;;3.63;2.20;;;23.30;97.90;;;;;;5051826;28;20037;-65
2023/09/14 10:17:32;;;;;;;2.38;1.70;;;23.00;97.60;;;;;;5053559;28;20033;-66
2023/09/14 10:20:00;;;;;;;3.85;2.17;;;23.40;97.90;;;;;;5050679;28;20024;-65
2023/09/14 10:22:27;;;;;;;3.67;2.15;;;23.70;97.30;;;;;;5031187;28;20029;-65
2023/09/14 10:24:54;;;;;;;3.72;1.95;;;23.60;97.30;;;;;;5052119;28;20509;-65
2023/09/14 10:27:20;;;;;;;5.40;2.47;;;23.60;96.80;;;;;;5053847;28;20524;-65
2023/09/14 10:29:47;;;;;;;3.05;1.70;;;23.70;95.30;;;;;;5053539;28;20115;-65
2023/09/14 10:32:17;;;;;;;3.72;1.80;;;23.90;96.00;;;;;;5054397;28;20063;-65
2023/09/14 10:34:44;;;;;;;2.50;1.45;;;24.30;95.70;;;;;;5051374;28;20371;-66
2023/09/14 10:37:11;;;;;;;3.35;1.60;;;24.10;94.60;;;;;;5050788;28;20064;-64
2023/09/14 10:39:37;;;;;;;5.47;1.42;;;24.10;94.60;;;;;;5049722;28;20717;-65
2023/09/14 10:42:06;;;;;;;2.33;1.50;;;23.90;95.10;;;;;;5049639;28;20481;-65
2023/09/14 10:44:33;;;;;;;2.38;1.23;;;23.30;95.80;;;;;;5052914;28;20041;-65
2023/09/14 10:47:01;;;;;;;4.57;1.48;;;22.80;96.00;;;;;;5032235;28;20477;-65
2023/09/14 10:49:31;;;;;;;4.13;1.25;;;22.70;97.20;;;;;;5030883;28;20079;-66
2023/09/14 10:51:56;;;;;;;3.35;1.65;;;22.80;97.00;;;;;;5049402;28;20040;-65
2023/09/14 10:54:24;;;;;;;2.53;1.52;;;23.10;96.70;;;;;;5047932;28;20048;-65
2023/09/14 10:56:59;;;;;;;4.65;2.00;;;23.60;95.90;;;;;;5051082;28;20078;-65
2023/09/14 10:59:47;;;;;;;4.28;2.17;;;23.90;95.60;;;;;;5049785;28;20252;-65
2023/09/14 11:02:39;;;;;;;2.20;1.33;;;23.80;96.70;;;;;;5053474;28;20060;-65
2023/09/14 11:05:18;;;;;;;2.80;1.33;;;23.70;93.40;;;;;;5052543;28;20032;-65
2023/09/14 11:07:49;;;;;;;2.55;1.50;;;24.00;94.90;;;;;;5052777;28;20110;-65
2023/09/14 11:10:17;;;;;;;3.35;1.67;;;24.10;94.60;;;;;;5053707;28;20447;-65
2023/09/14 11:12:45;;;;;;;2.85;1.40;;;24.50;93.80;;;;;;5051782;28;20502;-66
2023/09/14 11:15:22;;;;;;;3.00;1.20;;;24.10;94.20;;;;;;5051304;28;20037;-66
2023/09/14 11:17:54;;;;;;;3.15;1.30;;;23.90;93.30;;;;;;5049308;28;20059;-65
2023/09/14 11:20:20;;;;;;;3.03;1.40;;;23.90;94.10;;;;;;5049476;28;20574;-66
2023/09/14 11:22:50;;;;;;;1.92;1.27;;;23.70;93.70;;;;;;5051384;28;20040;-65
2023/09/14 11:25:30;;;;;;;2.38;1.58;;;23.50;94.30;;;;;;5055198;28;20513;-65
2023/09/14 11:27:57;;;;;;;4.88;1.92;;;23.40;93.70;;;;;;5051872;28;20033;-65
2023/09/14 11:30:27;;;;;;;2.47;1.48;;;23.20;94.10;;;;;;5058238;28;20033;-65
2023/09/14 11:32:53;;;;;;;5.32;2.00;;;23.00;94.40;;;;;;5050945;28;20387;-65
2023/09/14 11:35:36;;;;;;;4.72;1.90;;;22.90;94.60;;;;;;5052071;28;20068;-65
2023/09/14 11:38:04;;;;;;;3.90;1.63;;;22.40;95.70;;;;;;5048025;28;20052;-65
2023/09/14 11:40:33;;;;;;;4.55;1.85;;;22.10;95.90;;;;;;5054545;28;20056;-65
2023/09/14 11:43:36;;;;;;;3.53;2.03;;;22.00;99.00;;;;;;5055346;28;20079;-65
2023/09/14 11:46:04;;;;;;;5.45;2.15;;;21.70;95.20;;;;;;5055472;28;20032;-65
2023/09/14 11:48:34;;;;;;;3.90;2.25;;;21.70;96.20;;;;;;5055817;28;20025;-65
2023/09/14 11:51:03;;;;;;;3.35;1.92;;;21.50;96.80;;;;;;5053939;28;20032;-64
2023/09/14 11:53:35;;;;;;;5.85;2.42;;;21.40;96.30;;;;;;5055094;28;20032;-65
2023/09/14 11:56:00;;;;;;;4.63;2.17;;;21.70;96.10;;;;;;5056037;28;20822;-66
2023/09/14 11:58:26;;;;;;;3.85;1.73;;;21.70;97.50;;;;;;5036625;28;20024;-64
2023/09/14 12:00:54;;;;;;;4.40;1.77;;;22.00;96.40;;;;;;5055615;28;20381;-65
2023/09/14 12:03:20;;;;;;;3.97;2.28;;;22.30;95.90;;;;;;5054367;28;20044;-64
2023/09/14 12:05:49;;;;;;;7.07;2.53;;;22.50;92.20;;;;;;5053924;28;20033;-65
2023/09/14 12:08:16;;;;;;;5.03;1.80;;;22.70;91.90;;;;;;5056277;28;20040;-65
2023/09/14 12:10:45;;;;;;;3.47;2.00;;;23.10;92.00;;;;;;5051381;28;20043;-65
2023/09/14 12:13:15;;;;;;;2.92;1.83;;;23.40;91.30;;;;;;5056635;28;20029;-65
2023/09/14 12:15:46;;;;;;;3.95;2.72;;;23.40;92.10;;;;;;5052960;28;20684;-65
2023/09/14 12:18:13;;;;;;;3.50;1.80;;;23.20;91.20;;;;;;5054318;28;20028;-66
2023/09/14 12:20:44;;;;;;;4.15;2.15;;;23.50;90.70;;;;;;5055665;28;20497;-65
2023/09/14 12:23:11;;;;;;;4.57;1.60;;;23.50;90.70;;;;;;5057793;28;20040;-65
2023/09/14 12:25:38;;;;;;;2.80;1.80;;;23.00;91.30;;;;;;5056272;28;20493;-65
2023/09/14 12:28:07;;;;;;;3.20;1.75;;;22.90;92.20;;;;;;5050634;28;20040;-64
2023/09/14 12:30:35;;;;;;;4.40;2.60;;;23.10;93.20;;;;;;5055904;28;20039;-65
2023/09/14 12:33:05;;;;;;;3.03;1.73;;;23.40;92.10;;;;;;5058943;28;20226;-65
2023/09/14 12:35:31;;;;;;;2.88;1.70;;;23.40;91.60;;;;;;5053559;28;20098;-65
2023/09/14 12:38:04;;;;;;;2.58;1.90;;;23.20;91.60;;;;;;5037288;28;20032;-65
2023/09/14 12:40:37;;;;;;;3.78;1.58;;;23.10;92.30;;;;;;5053078;28;20028;-65
2023/09/14 12:43:04;;;;;;;2.85;1.70;;;23.00;94.10;;;;;;5032699;28;20037;-65
2023/09/14 12:45:34;;;;;;;2.92;1.90;;;23.10;93.00;;;;;;5045158;28;20036;-64